Aloha, Washington
Current Conditions -  °F | °C
As of 9:53 PM on Thursday 27 Nov 2014 (Local Time) from KHQM Reporting Station
Haze Haze  
Wind Chill: 13°   Ceiling: 1300
Heat Index: 13°   Visibility: 6mi
Dew Point: 12°   Wind: 22mph
Humidity: 93%   Direction: 200°SSW
Pressure: 29.74"   Gusts: 30mph
Location:  47.1899°N, 124.112°W
Report Text: KHQM 280553Z AUTO 20019G26KT 6SM BR BKN013 BKN024 OVC060 13/12 A2974 RMK AO2 PK WND 20029/0502 RAB0455E04B20E36 SLP073 P0001 60012 T01330122 10133 20128 58004
Loading
Personal Weather Stations






























Interactive Weather Map New forecast layout! Learn more

10-Day Weather Forecast

Advertisements
Track Severe Weather on mobile